sensor_id;sensor_type;location;lat;lon;timestamp;pressure;altitude;pressure_sealevel;temperature;humidity
4326;BME280;58429;49.826;10.880;2023-05-02T00:00:42;98674;;;8.6;80.24
4326;BME280;58429;49.826;10.880;2023-05-02T00:01:42;98670;;;8.55;80.38
4326;BME280;58429;49.826;10.880;2023-05-02T00:02:42;98676;;;8.6;80.37
4326;BME280;58429;49.826;10.880;2023-05-02T00:03:42;98671;;;8.6;80.39
4326;BME280;58429;49.826;10.880;2023-05-02T00:04:42;98670;;;8.59;80.34
4326;BME280;58429;49.826;10.880;2023-05-02T00:05:42;98667;;;8.58;80.38
4326;BME280;58429;49.826;10.880;2023-05-02T00:06:42;98669;;;8.6;80.41
4326;BME280;58429;49.826;10.880;2023-05-02T00:07:42;98669;;;8.56;80.5
4326;BME280;58429;49.826;10.880;2023-05-02T00:08:42;98667;;;8.55;80.72
4326;BME280;58429;49.826;10.880;2023-05-02T00:09:42;98664;;;8.56;80.88
4326;BME280;58429;49.826;10.880;2023-05-02T00:10:42;98668;;;8.56;80.89
4326;BME280;58429;49.826;10.880;2023-05-02T00:11:42;98658;;;8.58;80.76
4326;BME280;58429;49.826;10.880;2023-05-02T00:12:42;98662;;;8.54;80.58
4326;BME280;58429;49.826;10.880;2023-05-02T00:13:42;98661;;;8.51;80.35
4326;BME280;58429;49.826;10.880;2023-05-02T00:14:42;98660;;;8.49;80.19
4326;BME280;58429;49.826;10.880;2023-05-02T00:15:42;98660;;;8.51;80.09
4326;BME280;58429;49.826;10.880;2023-05-02T00:16:42;98656;;;8.5;80.09
4326;BME280;58429;49.826;10.880;2023-05-02T00:17:42;98664;;;8.48;80.09
4326;BME280;58429;49.826;10.880;2023-05-02T00:18:42;98652;;;8.42;80.16
4326;BME280;58429;49.826;10.880;2023-05-02T00:19:42;98661;;;8.42;80.25
4326;BME280;58429;49.826;10.880;2023-05-02T00:20:42;98656;;;8.4;80.45
4326;BME280;58429;49.826;10.880;2023-05-02T00:21:42;98661;;;8.41;80.65
4326;BME280;58429;49.826;10.880;2023-05-02T00:22:42;98654;;;8.41;80.71
4326;BME280;58429;49.826;10.880;2023-05-02T00:23:42;98663;;;8.43;80.82
4326;BME280;58429;49.826;10.880;2023-05-02T00:24:42;98657;;;8.39;81.06
4326;BME280;58429;49.826;10.880;2023-05-02T00:25:43;98654;;;8.43;81.35
4326;BME280;58429;49.826;10.880;2023-05-02T00:26:42;98650;;;8.42;81.46
4326;BME280;58429;49.826;10.880;2023-05-02T00:27:42;98653;;;8.45;81.49
4326;BME280;58429;49.826;10.880;2023-05-02T00:28:42;98649;;;8.43;81.46
4326;BME280;58429;49.826;10.880;2023-05-02T00:29:42;98653;;;8.43;81.4
4326;BME280;58429;49.826;10.880;2023-05-02T00:30:42;98650;;;8.41;81.32
4326;BME280;58429;49.826;10.880;2023-05-02T00:31:42;98650;;;8.4;81.34
4326;BME280;58429;49.826;10.880;2023-05-02T00:32:42;98648;;;8.43;81.39
4326;BME280;58429;49.826;10.880;2023-05-02T00:33:42;98653;;;8.43;81.38
4326;BME280;58429;49.826;10.880;2023-05-02T00:34:42;98654;;;8.38;81.26
4326;BME280;58429;49.826;10.880;2023-05-02T00:35:42;98642;;;8.37;81.18
4326;BME280;58429;49.826;10.880;2023-05-02T00:36:42;98650;;;8.39;81.08
4326;BME280;58429;49.826;10.880;2023-05-02T00:37:42;98645;;;8.39;80.98
4326;BME280;58429;49.826;10.880;2023-05-02T00:38:42;98647;;;8.39;80.98
4326;BME280;58429;49.826;10.880;2023-05-02T00:39:42;98641;;;8.39;80.99
4326;BME280;58429;49.826;10.880;2023-05-02T00:40:43;98645;;;8.37;81.17
4326;BME280;58429;49.826;10.880;2023-05-02T00:41:42;98649;;;8.36;81.49
4326;BME280;58429;49.826;10.880;2023-05-02T00:42:42;98649;;;8.37;81.59
4326;BME280;58429;49.826;10.880;2023-05-02T00:43:42;98641;;;8.37;81.48
4326;BME280;58429;49.826;10.880;2023-05-02T00:44:42;98646;;;8.4;81.45
4326;BME280;58429;49.826;10.880;2023-05-02T00:45:43;98645;;;8.36;81.5
4326;BME280;58429;49.826;10.880;2023-05-02T00:46:42;98638;;;8.4;81.43
4326;BME280;58429;49.826;10.880;2023-05-02T00:47:42;98644;;;8.38;81.37
4326;BME280;58429;49.826;10.880;2023-05-02T00:48:42;98639;;;8.37;81.41
4326;BME280;58429;49.826;10.880;2023-05-02T00:49:42;98638;;;8.37;81.56
4326;BME280;58429;49.826;10.880;2023-05-02T00:50:42;98641;;;8.37;81.62
4326;BME280;58429;49.826;10.880;2023-05-02T00:51:42;98645;;;8.37;81.53
4326;BME280;58429;49.826;10.880;2023-05-02T00:52:42;98648;;;8.35;81.37
4326;BME280;58429;49.826;10.880;2023-05-02T00:53:42;98641;;;8.37;81.21
4326;BME280;58429;49.826;10.880;2023-05-02T00:54:42;98642;;;8.37;80.99
4326;BME280;58429;49.826;10.880;2023-05-02T00:55:43;98648;;;8.35;80.8
4326;BME280;58429;49.826;10.880;2023-05-02T00:56:42;98638;;;8.33;80.65
4326;BME280;58429;49.826;10.880;2023-05-02T00:57:42;98645;;;8.31;80.56
4326;BME280;58429;49.826;10.880;2023-05-02T00:58:42;98650;;;8.3;80.51
4326;BME280;58429;49.826;10.880;2023-05-02T00:59:42;98648;;;8.3;80.46
4326;BME280;58429;49.826;10.880;2023-05-02T01:00:45;98645;;;8.28;80.41
4326;BME280;58429;49.826;10.880;2023-05-02T01:01:46;98647;;;8.23;80.31
4326;BME280;58429;49.826;10.880;2023-05-02T01:02:45;98646;;;8.24;80.29
4326;BME280;58429;49.826;10.880;2023-05-02T01:03:45;98651;;;8.21;80.23
4326;BME280;58429;49.826;10.880;2023-05-02T01:04:43;98648;;;8.15;80.23
4326;BME280;58429;49.826;10.880;2023-05-02T01:05:43;98651;;;8.16;80.27
4326;BME280;58429;49.826;10.880;2023-05-02T01:06:47;98660;;;8.12;80.26
4326;BME280;58429;49.826;10.880;2023-05-02T01:07:50;98658;;;8.11;80.23
4326;BME280;58429;49.826;10.880;2023-05-02T01:08:44;98656;;;8.11;80.22
4326;BME280;58429;49.826;10.880;2023-05-02T01:09:46;98663;;;8.1;80.2
4326;BME280;58429;49.826;10.880;2023-05-02T01:10:46;98660;;;8.11;80.2
4326;BME280;58429;49.826;10.880;2023-05-02T01:11:43;98658;;;8.11;80.18
4326;BME280;58429;49.826;10.880;2023-05-02T01:12:44;98660;;;8.1;80.21
4326;BME280;58429;49.826;10.880;2023-05-02T01:13:42;98670;;;8.07;80.27
4326;BME280;58429;49.826;10.880;2023-05-02T01:14:43;98663;;;8.05;80.28
4326;BME280;58429;49.826;10.880;2023-05-02T01:15:42;98664;;;8.03;80.28
4326;BME280;58429;49.826;10.880;2023-05-02T01:16:42;98672;;;8.05;80.29
4326;BME280;58429;49.826;10.880;2023-05-02T01:17:43;98665;;;8.01;80.24
4326;BME280;58429;49.826;10.880;2023-05-02T01:18:42;98671;;;7.93;80.25
4326;BME280;58429;49.826;10.880;2023-05-02T01:19:43;98670;;;7.97;80.26
4326;BME280;58429;49.826;10.880;2023-05-02T01:20:43;98670;;;7.89;80.27
4326;BME280;58429;49.826;10.880;2023-05-02T01:21:42;98669;;;7.89;80.38
4326;BME280;58429;49.826;10.880;2023-05-02T01:22:42;98670;;;7.88;80.43
4326;BME280;58429;49.826;10.880;2023-05-02T01:23:45;98667;;;7.87;80.47
4326;BME280;58429;49.826;10.880;2023-05-02T01:24:48;98670;;;7.88;80.48
4326;BME280;58429;49.826;10.880;2023-05-02T01:25:47;98668;;;7.89;80.54
4326;BME280;58429;49.826;10.880;2023-05-02T01:26:44;98670;;;7.89;80.61
4326;BME280;58429;49.826;10.880;2023-05-02T01:27:50;98661;;;7.85;80.81
4326;BME280;58429;49.826;10.880;2023-05-02T01:28:58;98671;;;7.83;80.85
4326;BME280;58429;49.826;10.880;2023-05-02T01:29:42;98669;;;7.81;80.89
4326;BME280;58429;49.826;10.880;2023-05-02T01:30:42;98667;;;7.77;80.99
4326;BME280;58429;49.826;10.880;2023-05-02T01:31:43;98664;;;7.73;81.05
4326;BME280;58429;49.826;10.880;2023-05-02T01:32:43;98672;;;7.72;81.06
4326;BME280;58429;49.826;10.880;2023-05-02T01:33:42;98667;;;7.74;81.04
4326;BME280;58429;49.826;10.880;2023-05-02T01:34:42;98672;;;7.74;81.15
4326;BME280;58429;49.826;10.880;2023-05-02T01:35:42;98668;;;7.68;81.21
4326;BME280;58429;49.826;10.880;2023-05-02T01:36:43;98671;;;7.68;81.28
4326;BME280;58429;49.826;10.880;2023-05-02T01:37:42;98675;;;7.7;81.31
4326;BME280;58429;49.826;10.880;2023-05-02T01:38:42;98682;;;7.7;81.25
4326;BME280;58429;49.826;10.880;2023-05-02T01:39:42;98677;;;7.69;81.22
4326;BME280;58429;49.826;10.880;2023-05-02T01:40:43;98672;;;7.67;81.17
4326;BME280;58429;49.826;10.880;2023-05-02T01:41:42;98686;;;7.68;81.16
4326;BME280;58429;49.826;10.880;2023-05-02T01:42:42;98681;;;7.67;81.22
4326;BME280;58429;49.826;10.880;2023-05-02T01:43:42;98684;;;7.66;81.21
4326;BME280;58429;49.826;10.880;2023-05-02T01:44:43;98684;;;7.65;81.14
4326;BME280;58429;49.826;10.880;2023-05-02T01:45:43;98684;;;7.63;81.1
4326;BME280;58429;49.826;10.880;2023-05-02T01:46:42;98682;;;7.65;81.08
4326;BME280;58429;49.826;10.880;2023-05-02T01:47:43;98681;;;7.64;81.1
4326;BME280;58429;49.826;10.880;2023-05-02T01:48:43;98685;;;7.61;81.22
4326;BME280;58429;49.826;10.880;2023-05-02T01:49:42;98682;;;7.58;81.23
4326;BME280;58429;49.826;10.880;2023-05-02T01:50:42;98689;;;7.6;81.34
4326;BME280;58429;49.826;10.880;2023-05-02T01:51:43;98684;;;7.61;81.37
4326;BME280;58429;49.826;10.880;2023-05-02T01:52:43;98683;;;7.61;81.39
4326;BME280;58429;49.826;10.880;2023-05-02T01:53:42;98687;;;7.62;81.43
4326;BME280;58429;49.826;10.880;2023-05-02T01:54:43;98685;;;7.59;81.45
4326;BME280;58429;49.826;10.880;2023-05-02T01:55:43;98690;;;7.61;81.5
4326;BME280;58429;49.826;10.880;2023-05-02T01:56:42;98687;;;7.56;81.54
4326;BME280;58429;49.826;10.880;2023-05-02T01:57:43;98686;;;7.59;81.5
4326;BME280;58429;49.826;10.880;2023-05-02T01:58:42;98687;;;7.58;81.46
4326;BME280;58429;49.826;10.880;2023-05-02T01:59:42;98692;;;7.58;81.47
4326;BME280;58429;49.826;10.880;2023-05-02T02:00:43;98687;;;7.58;81.48
4326;BME280;58429;49.826;10.880;2023-05-02T02:01:42;98688;;;7.57;81.47
4326;BME280;58429;49.826;10.880;2023-05-02T02:02:42;98690;;;7.54;81.46
4326;BME280;58429;49.826;10.880;2023-05-02T02:03:42;98688;;;7.56;81.57
4326;BME280;58429;49.826;10.880;2023-05-02T02:04:43;98690;;;7.57;81.58
4326;BME280;58429;49.826;10.880;2023-05-02T02:05:42;98686;;;7.58;81.54
4326;BME280;58429;49.826;10.880;2023-05-02T02:06:43;98690;;;7.55;81.56
4326;BME280;58429;49.826;10.880;2023-05-02T02:07:42;98693;;;7.58;81.57
4326;BME280;58429;49.826;10.880;2023-05-02T02:08:42;98692;;;7.56;81.65
4326;BME280;58429;49.826;10.880;2023-05-02T02:09:42;98688;;;7.54;81.78
4326;BME280;58429;49.826;10.880;2023-05-02T02:10:44;98695;;;7.58;81.81
4326;BME280;58429;49.826;10.880;2023-05-02T02:11:43;98692;;;7.54;81.87
4326;BME280;58429;49.826;10.880;2023-05-02T02:12:44;98697;;;7.51;81.98
4326;BME280;58429;49.826;10.880;2023-05-02T02:13:43;98693;;;7.49;82.06
4326;BME280;58429;49.826;10.880;2023-05-02T02:14:45;98695;;;7.49;82.02
4326;BME280;58429;49.826;10.880;2023-05-02T02:15:43;98693;;;7.48;82.06
4326;BME280;58429;49.826;10.880;2023-05-02T02:16:42;98697;;;7.49;81.9
4326;BME280;58429;49.826;10.880;2023-05-02T02:17:45;98701;;;7.43;81.8
4326;BME280;58429;49.826;10.880;2023-05-02T02:18:42;98701;;;7.39;81.89
4326;BME280;58429;49.826;10.880;2023-05-02T02:19:42;98697;;;7.41;81.96
4326;BME280;58429;49.826;10.880;2023-05-02T02:20:43;98703;;;7.4;82.03
4326;BME280;58429;49.826;10.880;2023-05-02T02:21:42;98703;;;7.39;82.09
4326;BME280;58429;49.826;10.880;2023-05-02T02:22:43;98708;;;7.4;82.15
4326;BME280;58429;49.826;10.880;2023-05-02T02:23:42;98703;;;7.35;82.23
4326;BME280;58429;49.826;10.880;2023-05-02T02:24:43;98706;;;7.36;82.31
4326;BME280;58429;49.826;10.880;2023-05-02T02:25:42;98707;;;7.34;82.3
4326;BME280;58429;49.826;10.880;2023-05-02T02:26:42;98708;;;7.35;82.31
4326;BME280;58429;49.826;10.880;2023-05-02T02:27:42;98710;;;7.35;82.28
4326;BME280;58429;49.826;10.880;2023-05-02T02:28:42;98709;;;7.34;82.23
4326;BME280;58429;49.826;10.880;2023-05-02T02:29:42;98716;;;7.28;82.06
4326;BME280;58429;49.826;10.880;2023-05-02T02:30:42;98722;;;7.28;81.92
4326;BME280;58429;49.826;10.880;2023-05-02T02:31:43;98718;;;7.24;81.82
4326;BME280;58429;49.826;10.880;2023-05-02T02:32:42;98726;;;7.28;81.79
4326;BME280;58429;49.826;10.880;2023-05-02T02:33:43;98719;;;7.2;81.75
4326;BME280;58429;49.826;10.880;2023-05-02T02:34:42;98723;;;7.19;81.83
4326;BME280;58429;49.826;10.880;2023-05-02T02:35:43;98719;;;7.16;81.92
4326;BME280;58429;49.826;10.880;2023-05-02T02:36:44;98723;;;7.18;82.03
4326;BME280;58429;49.826;10.880;2023-05-02T02:37:44;98723;;;7.18;82
4326;BME280;58429;49.826;10.880;2023-05-02T02:38:44;98727;;;7.13;81.92
4326;BME280;58429;49.826;10.880;2023-05-02T02:39:44;98730;;;7.12;81.94
4326;BME280;58429;49.826;10.880;2023-05-02T02:40:43;98726;;;7.14;81.96
4326;BME280;58429;49.826;10.880;2023-05-02T02:41:44;98728;;;7.14;81.99
4326;BME280;58429;49.826;10.880;2023-05-02T02:42:43;98729;;;7.12;82.08
4326;BME280;58429;49.826;10.880;2023-05-02T02:43:44;98721;;;7.11;82.18
4326;BME280;58429;49.826;10.880;2023-05-02T02:44:46;98731;;;7.1;82.17
4326;BME280;58429;49.826;10.880;2023-05-02T02:45:44;98724;;;7.09;82.2
4326;BME280;58429;49.826;10.880;2023-05-02T02:46:45;98719;;;7.07;82.29
4326;BME280;58429;49.826;10.880;2023-05-02T02:47:43;98725;;;7.07;82.28
4326;BME280;58429;49.826;10.880;2023-05-02T02:48:45;98723;;;7.03;82.24
4326;BME280;58429;49.826;10.880;2023-05-02T02:49:44;98728;;;7.08;82.22
4326;BME280;58429;49.826;10.880;2023-05-02T02:50:45;98727;;;7.05;82.14
4326;BME280;58429;49.826;10.880;2023-05-02T02:51:43;98735;;;7.07;82.1
4326;BME280;58429;49.826;10.880;2023-05-02T02:52:47;98737;;;7.05;82.09
4326;BME280;58429;49.826;10.880;2023-05-02T02:53:45;98729;;;7.07;82.06
4326;BME280;58429;49.826;10.880;2023-05-02T02:54:44;98738;;;7.05;81.96
4326;BME280;58429;49.826;10.880;2023-05-02T02:55:44;98741;;;7.05;81.87
4326;BME280;58429;49.826;10.880;2023-05-02T02:56:44;98743;;;7.03;81.82
4326;BME280;58429;49.826;10.880;2023-05-02T02:57:45;98738;;;7.05;81.83
4326;BME280;58429;49.826;10.880;2023-05-02T02:58:45;98740;;;7.04;81.85
4326;BME280;58429;49.826;10.880;2023-05-02T02:59:46;98734;;;7.06;81.89
4326;BME280;58429;49.826;10.880;2023-05-02T03:00:43;98741;;;7.07;81.94
4326;BME280;58429;49.826;10.880;2023-05-02T03:01:44;98741;;;7.07;81.95
4326;BME280;58429;49.826;10.880;2023-05-02T03:02:43;98745;;;7.03;82.07
4326;BME280;58429;49.826;10.880;2023-05-02T03:03:43;98743;;;7.02;82.18
4326;BME280;58429;49.826;10.880;2023-05-02T03:04:43;98747;;;7.04;82.25
4326;BME280;58429;49.826;10.880;2023-05-02T03:05:43;98745;;;7.04;82.29
4326;BME280;58429;49.826;10.880;2023-05-02T03:06:43;98748;;;7.04;82.38
4326;BME280;58429;49.826;10.880;2023-05-02T03:07:43;98744;;;7.05;82.62
4326;BME280;58429;49.826;10.880;2023-05-02T03:08:43;98747;;;7.05;82.77
4326;BME280;58429;49.826;10.880;2023-05-02T03:09:43;98748;;;7.04;82.85
4326;BME280;58429;49.826;10.880;2023-05-02T03:10:43;98751;;;7.03;82.84
4326;BME280;58429;49.826;10.880;2023-05-02T03:11:43;98755;;;6.99;82.85
4326;BME280;58429;49.826;10.880;2023-05-02T03:12:43;98753;;;6.98;82.89
4326;BME280;58429;49.826;10.880;2023-05-02T03:13:47;98756;;;6.99;82.9
4326;BME280;58429;49.826;10.880;2023-05-02T03:14:43;98750;;;6.96;82.85
4326;BME280;58429;49.826;10.880;2023-05-02T03:16:05;98750;;;6.94;82.9
4326;BME280;58429;49.826;10.880;2023-05-02T03:16:43;98748;;;6.99;82.94
4326;BME280;58429;49.826;10.880;2023-05-02T03:17:43;98752;;;6.93;82.98
4326;BME280;58429;49.826;10.880;2023-05-02T03:18:43;98758;;;6.96;83.03
4326;BME280;58429;49.826;10.880;2023-05-02T03:19:43;98758;;;6.98;83.03
4326;BME280;58429;49.826;10.880;2023-05-02T03:20:43;98761;;;6.98;83.02
4326;BME280;58429;49.826;10.880;2023-05-02T03:21:43;98757;;;6.99;83.07
4326;BME280;58429;49.826;10.880;2023-05-02T03:22:43;98762;;;7.01;83.05
4326;BME280;58429;49.826;10.880;2023-05-02T03:23:43;98759;;;7.03;83.01
4326;BME280;58429;49.826;10.880;2023-05-02T03:24:43;98772;;;7.05;83.02
4326;BME280;58429;49.826;10.880;2023-05-02T03:25:43;98769;;;7.03;83.15
4326;BME280;58429;49.826;10.880;2023-05-02T03:26:43;98774;;;7;83.06
4326;BME280;58429;49.826;10.880;2023-05-02T03:27:43;98771;;;7.06;83.04
4326;BME280;58429;49.826;10.880;2023-05-02T03:28:43;98775;;;7.03;82.98
4326;BME280;58429;49.826;10.880;2023-05-02T03:29:43;98773;;;7.01;82.94
4326;BME280;58429;49.826;10.880;2023-05-02T03:30:43;98780;;;7.03;82.96
4326;BME280;58429;49.826;10.880;2023-05-02T03:31:43;98778;;;7.04;82.94
4326;BME280;58429;49.826;10.880;2023-05-02T03:32:43;98775;;;7.01;82.95
4326;BME280;58429;49.826;10.880;2023-05-02T03:33:43;98781;;;7.05;83.05
4326;BME280;58429;49.826;10.880;2023-05-02T03:34:43;98785;;;7.01;83.11
4326;BME280;58429;49.826;10.880;2023-05-02T03:35:43;98782;;;7.04;83.13
4326;BME280;58429;49.826;10.880;2023-05-02T03:36:43;98788;;;7.02;83.23
4326;BME280;58429;49.826;10.880;2023-05-02T03:37:43;98787;;;7.01;83.25
4326;BME280;58429;49.826;10.880;2023-05-02T03:38:43;98781;;;6.98;83.38
4326;BME280;58429;49.826;10.880;2023-05-02T03:39:43;98785;;;6.88;83.4
4326;BME280;58429;49.826;10.880;2023-05-02T03:40:43;98784;;;6.88;83.62
4326;BME280;58429;49.826;10.880;2023-05-02T03:41:43;98788;;;6.84;83.58
4326;BME280;58429;49.826;10.880;2023-05-02T03:42:43;98782;;;6.83;83.54
4326;BME280;58429;49.826;10.880;2023-05-02T03:43:43;98785;;;6.84;83.48
4326;BME280;58429;49.826;10.880;2023-05-02T03:44:43;98778;;;6.84;83.4
4326;BME280;58429;49.826;10.880;2023-05-02T03:45:43;98782;;;6.83;83.34
4326;BME280;58429;49.826;10.880;2023-05-02T03:46:43;98785;;;6.84;83.32
4326;BME280;58429;49.826;10.880;2023-05-02T03:47:43;98785;;;6.82;83.25
4326;BME280;58429;49.826;10.880;2023-05-02T03:48:43;98783;;;6.82;83.23
4326;BME280;58429;49.826;10.880;2023-05-02T03:49:43;98784;;;6.81;83.22
4326;BME280;58429;49.826;10.880;2023-05-02T03:50:43;98781;;;6.85;83.23
4326;BME280;58429;49.826;10.880;2023-05-02T03:51:43;98780;;;6.8;83.16
4326;BME280;58429;49.826;10.880;2023-05-02T03:52:43;98787;;;6.8;83.15
4326;BME280;58429;49.826;10.880;2023-05-02T03:53:43;98787;;;6.79;83.16
4326;BME280;58429;49.826;10.880;2023-05-02T03:54:43;98785;;;6.8;83.14
4326;BME280;58429;49.826;10.880;2023-05-02T03:55:43;98786;;;6.82;83.12
4326;BME280;58429;49.826;10.880;2023-05-02T03:56:43;98792;;;6.83;83.12
4326;BME280;58429;49.826;10.880;2023-05-02T03:57:43;98789;;;6.84;83.08
4326;BME280;58429;49.826;10.880;2023-05-02T03:58:43;98789;;;6.88;83.1
4326;BME280;58429;49.826;10.880;2023-05-02T03:59:43;98785;;;6.86;83.03
4326;BME280;58429;49.826;10.880;2023-05-02T04:00:43;98792;;;6.85;82.99
4326;BME280;58429;49.826;10.880;2023-05-02T04:01:43;98791;;;6.87;83.07
4326;BME280;58429;49.826;10.880;2023-05-02T04:02:43;98790;;;6.91;83.09
4326;BME280;58429;49.826;10.880;2023-05-02T04:03:43;98794;;;6.89;83.07
4326;BME280;58429;49.826;10.880;2023-05-02T04:04:43;98791;;;6.92;83.08
4326;BME280;58429;49.826;10.880;2023-05-02T04:05:43;98791;;;6.9;83.02
4326;BME280;58429;49.826;10.880;2023-05-02T04:06:43;98802;;;6.9;83.04
4326;BME280;58429;49.826;10.880;2023-05-02T04:07:43;98798;;;6.93;83.23
4326;BME280;58429;49.826;10.880;2023-05-02T04:08:43;98799;;;6.87;83.22
4326;BME280;58429;49.826;10.880;2023-05-02T04:09:43;98809;;;6.87;83.4
4326;BME280;58429;49.826;10.880;2023-05-02T04:10:43;98805;;;6.84;83.47
4326;BME280;58429;49.826;10.880;2023-05-02T04:11:43;98802;;;6.84;83.51
4326;BME280;58429;49.826;10.880;2023-05-02T04:12:43;98807;;;6.82;83.61
4326;BME280;58429;49.826;10.880;2023-05-02T04:13:43;98805;;;6.79;83.76
4326;BME280;58429;49.826;10.880;2023-05-02T04:14:43;98816;;;6.77;83.78
4326;BME280;58429;49.826;10.880;2023-05-02T04:15:43;98815;;;6.76;83.79
4326;BME280;58429;49.826;10.880;2023-05-02T04:16:46;98815;;;6.77;83.74
4326;BME280;58429;49.826;10.880;2023-05-02T04:17:43;98816;;;6.74;83.91
4326;BME280;58429;49.826;10.880;2023-05-02T04:18:43;98820;;;6.75;83.9
4326;BME280;58429;49.826;10.880;2023-05-02T04:19:43;98819;;;6.76;83.81
4326;BME280;58429;49.826;10.880;2023-05-02T04:20:43;98818;;;6.75;83.87
4326;BME280;58429;49.826;10.880;2023-05-02T04:21:43;98823;;;6.76;83.93
4326;BME280;58429;49.826;10.880;2023-05-02T04:22:43;98820;;;6.75;83.9
4326;BME280;58429;49.826;10.880;2023-05-02T04:23:43;98820;;;6.78;83.88
4326;BME280;58429;49.826;10.880;2023-05-02T04:24:43;98823;;;6.79;83.88
4326;BME280;58429;49.826;10.880;2023-05-02T04:25:49;98827;;;6.79;83.9
4326;BME280;58429;49.826;10.880;2023-05-02T04:26:43;98822;;;6.81;83.86
4326;BME280;58429;49.826;10.880;2023-05-02T04:27:43;98828;;;6.8;83.79
4326;BME280;58429;49.826;10.880;2023-05-02T04:28:43;98835;;;6.8;83.77
4326;BME280;58429;49.826;10.880;2023-05-02T04:29:43;98829;;;6.82;83.74
4326;BME280;58429;49.826;10.880;2023-05-02T04:30:43;98835;;;6.84;83.8
4326;BME280;58429;49.826;10.880;2023-05-02T04:31:43;98826;;;6.83;83.78
4326;BME280;58429;49.826;10.880;2023-05-02T04:32:43;98826;;;6.86;83.8
4326;BME280;58429;49.826;10.880;2023-05-02T04:33:43;98830;;;6.87;83.8
4326;BME280;58429;49.826;10.880;2023-05-02T04:34:43;98833;;;6.91;83.84
4326;BME280;58429;49.826;10.880;2023-05-02T04:35:43;98832;;;6.91;83.84
4326;BME280;58429;49.826;10.880;2023-05-02T04:36:43;98841;;;6.92;83.8
4326;BME280;58429;49.826;10.880;2023-05-02T04:37:43;98841;;;6.95;83.88
4326;BME280;58429;49.826;10.880;2023-05-02T04:38:43;98843;;;6.91;83.88
4326;BME280;58429;49.826;10.880;2023-05-02T04:39:43;98840;;;6.94;83.95
4326;BME280;58429;49.826;10.880;2023-05-02T04:40:43;98842;;;6.95;83.95
4326;BME280;58429;49.826;10.880;2023-05-02T04:41:43;98849;;;6.98;83.99
4326;BME280;58429;49.826;10.880;2023-05-02T04:42:43;98843;;;6.99;83.99
4326;BME280;58429;49.826;10.880;2023-05-02T04:43:43;98848;;;6.99;83.99
4326;BME280;58429;49.826;10.880;2023-05-02T04:44:43;98852;;;7;84.01
4326;BME280;58429;49.826;10.880;2023-05-02T04:45:43;98851;;;6.98;84.02
4326;BME280;58429;49.826;10.880;2023-05-02T04:46:43;98859;;;6.99;84.03
4326;BME280;58429;49.826;10.880;2023-05-02T04:47:43;98853;;;6.97;84.06
4326;BME280;58429;49.826;10.880;2023-05-02T04:48:43;98850;;;7.04;84.07
4326;BME280;58429;49.826;10.880;2023-05-02T04:49:43;98855;;;7.06;84.09
4326;BME280;58429;49.826;10.880;2023-05-02T04:50:43;98857;;;7.05;84.1
4326;BME280;58429;49.826;10.880;2023-05-02T04:51:43;98861;;;7.09;84.13
4326;BME280;58429;49.826;10.880;2023-05-02T04:52:43;98863;;;7.09;84.2
4326;BME280;58429;49.826;10.880;2023-05-02T04:53:43;98865;;;7.12;84.31
4326;BME280;58429;49.826;10.880;2023-05-02T04:54:43;98859;;;7.13;84.3
4326;BME280;58429;49.826;10.880;2023-05-02T04:55:43;98858;;;7.17;84.35
4326;BME280;58429;49.826;10.880;2023-05-02T04:56:43;98858;;;7.2;84.29
4326;BME280;58429;49.826;10.880;2023-05-02T04:57:43;98862;;;7.21;84.3
4326;BME280;58429;49.826;10.880;2023-05-02T04:58:43;98863;;;7.24;84.31
4326;BME280;58429;49.826;10.880;2023-05-02T04:59:43;98865;;;7.2;84.35
4326;BME280;58429;49.826;10.880;2023-05-02T05:00:43;98870;;;7.23;84.37
4326;BME280;58429;49.826;10.880;2023-05-02T05:01:43;98871;;;7.29;84.38
4326;BME280;58429;49.826;10.880;2023-05-02T05:02:43;98867;;;7.29;84.38
4326;BME280;58429;49.826;10.880;2023-05-02T05:03:43;98870;;;7.28;84.44
4326;BME280;58429;49.826;10.880;2023-05-02T05:04:43;98872;;;7.3;84.52
4326;BME280;58429;49.826;10.880;2023-05-02T05:05:43;98869;;;7.26;84.69
4326;BME280;58429;49.826;10.880;2023-05-02T05:06:43;98870;;;7.28;84.8
4326;BME280;58429;49.826;10.880;2023-05-02T05:07:43;98865;;;7.26;84.9
4326;BME280;58429;49.826;10.880;2023-05-02T05:08:43;98870;;;7.28;84.91
4326;BME280;58429;49.826;10.880;2023-05-02T05:09:43;98870;;;7.29;84.96
4326;BME280;58429;49.826;10.880;2023-05-02T05:10:43;98869;;;7.31;84.95
4326;BME280;58429;49.826;10.880;2023-05-02T05:11:43;98881;;;7.32;84.92
4326;BME280;58429;49.826;10.880;2023-05-02T05:12:43;98878;;;7.33;84.92
4326;BME280;58429;49.826;10.880;2023-05-02T05:13:43;98875;;;7.32;84.89
4326;BME280;58429;49.826;10.880;2023-05-02T05:14:43;98880;;;7.34;84.85
4326;BME280;58429;49.826;10.880;2023-05-02T05:15:43;98877;;;7.34;84.82
4326;BME280;58429;49.826;10.880;2023-05-02T05:16:43;98879;;;7.34;84.79
4326;BME280;58429;49.826;10.880;2023-05-02T05:17:43;98880;;;7.36;84.78
4326;BME280;58429;49.826;10.880;2023-05-02T05:18:43;98879;;;7.37;84.78
4326;BME280;58429;49.826;10.880;2023-05-02T05:19:43;98883;;;7.38;84.78
4326;BME280;58429;49.826;10.880;2023-05-02T05:20:43;98884;;;7.42;84.81
4326;BME280;58429;49.826;10.880;2023-05-02T05:21:43;98888;;;7.38;84.83
4326;BME280;58429;49.826;10.880;2023-05-02T05:22:43;98887;;;7.45;84.85
4326;BME280;58429;49.826;10.880;2023-05-02T05:23:43;98884;;;7.4;84.86
4326;BME280;58429;49.826;10.880;2023-05-02T05:24:49;98890;;;7.43;84.87
4326;BME280;58429;49.826;10.880;2023-05-02T05:25:43;98887;;;7.41;84.98
4326;BME280;58429;49.826;10.880;2023-05-02T05:26:43;98892;;;7.44;85.02
4326;BME280;58429;49.826;10.880;2023-05-02T05:27:43;98891;;;7.44;85.02
4326;BME280;58429;49.826;10.880;2023-05-02T05:28:43;98886;;;7.44;85.05
4326;BME280;58429;49.826;10.880;2023-05-02T05:29:43;98887;;;7.48;85.05
4326;BME280;58429;49.826;10.880;2023-05-02T05:30:43;98889;;;7.54;85.07
4326;BME280;58429;49.826;10.880;2023-05-02T05:31:43;98893;;;7.52;85.07
4326;BME280;58429;49.826;10.880;2023-05-02T05:32:43;98889;;;7.58;85.12
4326;BME280;58429;49.826;10.880;2023-05-02T05:33:43;98901;;;7.57;85.12
4326;BME280;58429;49.826;10.880;2023-05-02T05:34:43;98907;;;7.57;85.13
4326;BME280;58429;49.826;10.880;2023-05-02T05:35:43;98909;;;7.56;85.28
4326;BME280;58429;49.826;10.880;2023-05-02T05:36:43;98902;;;7.58;85.32